sensor_id;sensor_type;location;lat;lon;timestamp;P1;durP1;ratioP1;P2;durP2;ratioP2
75216;SDS011;63800;51.972;5.682;2023-04-06T00:00:32;13.23;;;8.02;;
75216;SDS011;63800;51.972;5.682;2023-04-06T00:02:57;14.05;;;7.65;;
75216;SDS011;63800;51.972;5.682;2023-04-06T00:05:23;13.07;;;8.02;;
75216;SDS011;63800;51.972;5.682;2023-04-06T00:07:49;14.00;;;8.13;;
75216;SDS011;63800;51.972;5.682;2023-04-06T00:10:15;14.70;;;7.70;;
75216;SDS011;63800;51.972;5.682;2023-04-06T00:12:41;14.55;;;7.95;;
75216;SDS011;63800;51.972;5.682;2023-04-06T00:15:07;12.23;;;7.55;;
75216;SDS011;63800;51.972;5.682;2023-04-06T00:17:33;15.93;;;8.50;;
75216;SDS011;63800;51.972;5.682;2023-04-06T00:19:59;14.32;;;8.95;;
75216;SDS011;63800;51.972;5.682;2023-04-06T00:22:24;13.07;;;7.90;;
75216;SDS011;63800;51.972;5.682;2023-04-06T00:24:50;15.30;;;8.85;;
75216;SDS011;63800;51.972;5.682;2023-04-06T00:27:15;13.30;;;7.80;;
75216;SDS011;63800;51.972;5.682;2023-04-06T00:29:41;14.20;;;8.75;;
75216;SDS011;63800;51.972;5.682;2023-04-06T00:32:08;14.77;;;8.48;;
75216;SDS011;63800;51.972;5.682;2023-04-06T00:34:34;11.77;;;7.72;;
75216;SDS011;63800;51.972;5.682;2023-04-06T00:36:59;12.23;;;8.13;;
75216;SDS011;63800;51.972;5.682;2023-04-06T00:39:25;11.75;;;7.80;;
75216;SDS011;63800;51.972;5.682;2023-04-06T00:41:51;12.00;;;7.20;;
75216;SDS011;63800;51.972;5.682;2023-04-06T00:44:17;15.35;;;7.90;;
75216;SDS011;63800;51.972;5.682;2023-04-06T00:46:43;13.10;;;8.38;;
75216;SDS011;63800;51.972;5.682;2023-04-06T00:49:09;14.05;;;7.53;;
75216;SDS011;63800;51.972;5.682;2023-04-06T00:51:35;12.35;;;7.78;;
75216;SDS011;63800;51.972;5.682;2023-04-06T00:54:00;12.30;;;7.45;;
75216;SDS011;63800;51.972;5.682;2023-04-06T00:56:26;13.40;;;8.13;;
75216;SDS011;63800;51.972;5.682;2023-04-06T00:58:52;13.32;;;7.53;;
75216;SDS011;63800;51.972;5.682;2023-04-06T01:01:17;12.70;;;8.07;;
75216;SDS011;63800;51.972;5.682;2023-04-06T01:03:43;14.63;;;7.10;;
75216;SDS011;63800;51.972;5.682;2023-04-06T01:06:09;12.65;;;7.53;;
75216;SDS011;63800;51.972;5.682;2023-04-06T01:08:35;14.23;;;8.38;;
75216;SDS011;63800;51.972;5.682;2023-04-06T01:11:01;11.13;;;7.10;;
75216;SDS011;63800;51.972;5.682;2023-04-06T01:13:27;14.82;;;7.95;;
75216;SDS011;63800;51.972;5.682;2023-04-06T01:15:52;13.38;;;7.63;;
75216;SDS011;63800;51.972;5.682;2023-04-06T01:18:18;13.20;;;7.65;;
75216;SDS011;63800;51.972;5.682;2023-04-06T01:20:43;11.68;;;7.53;;
75216;SDS011;63800;51.972;5.682;2023-04-06T01:23:09;13.63;;;7.75;;
75216;SDS011;63800;51.972;5.682;2023-04-06T01:25:34;15.00;;;7.65;;
75216;SDS011;63800;51.972;5.682;2023-04-06T01:28:00;13.40;;;7.68;;
75216;SDS011;63800;51.972;5.682;2023-04-06T01:30:25;14.93;;;7.47;;
75216;SDS011;63800;51.972;5.682;2023-04-06T01:32:51;16.98;;;7.78;;
75216;SDS011;63800;51.972;5.682;2023-04-06T01:35:17;13.20;;;7.47;;
75216;SDS011;63800;51.972;5.682;2023-04-06T01:37:43;13.55;;;7.72;;
75216;SDS011;63800;51.972;5.682;2023-04-06T01:40:09;12.75;;;7.40;;
75216;SDS011;63800;51.972;5.682;2023-04-06T01:42:36;10.80;;;7.40;;
75216;SDS011;63800;51.972;5.682;2023-04-06T01:45:02;13.48;;;8.40;;
75216;SDS011;63800;51.972;5.682;2023-04-06T01:47:27;12.73;;;7.65;;
75216;SDS011;63800;51.972;5.682;2023-04-06T01:49:53;15.35;;;8.52;;
75216;SDS011;63800;51.972;5.682;2023-04-06T01:52:18;12.80;;;7.38;;
75216;SDS011;63800;51.972;5.682;2023-04-06T01:54:44;11.93;;;7.47;;
75216;SDS011;63800;51.972;5.682;2023-04-06T01:57:10;14.27;;;7.53;;
75216;SDS011;63800;51.972;5.682;2023-04-06T01:59:35;13.20;;;7.72;;
75216;SDS011;63800;51.972;5.682;2023-04-06T02:02:01;16.38;;;8.48;;
75216;SDS011;63800;51.972;5.682;2023-04-06T02:04:26;15.30;;;7.82;;
75216;SDS011;63800;51.972;5.682;2023-04-06T02:06:52;10.18;;;6.90;;
75216;SDS011;63800;51.972;5.682;2023-04-06T02:09:17;14.82;;;7.78;;
75216;SDS011;63800;51.972;5.682;2023-04-06T02:11:43;14.75;;;7.35;;
75216;SDS011;63800;51.972;5.682;2023-04-06T02:14:08;10.55;;;6.72;;
75216;SDS011;63800;51.972;5.682;2023-04-06T02:16:34;11.40;;;6.82;;
75216;SDS011;63800;51.972;5.682;2023-04-06T02:18:59;14.25;;;6.63;;
75216;SDS011;63800;51.972;5.682;2023-04-06T02:21:25;12.90;;;7.47;;
75216;SDS011;63800;51.972;5.682;2023-04-06T02:23:50;10.57;;;7.25;;
75216;SDS011;63800;51.972;5.682;2023-04-06T02:26:16;12.00;;;7.35;;
75216;SDS011;63800;51.972;5.682;2023-04-06T02:28:41;11.95;;;7.22;;
75216;SDS011;63800;51.972;5.682;2023-04-06T02:31:07;12.20;;;6.80;;
75216;SDS011;63800;51.972;5.682;2023-04-06T02:33:33;12.48;;;7.20;;
75216;SDS011;63800;51.972;5.682;2023-04-06T02:35:58;13.43;;;6.97;;
75216;SDS011;63800;51.972;5.682;2023-04-06T02:38:24;12.55;;;7.38;;
75216;SDS011;63800;51.972;5.682;2023-04-06T02:40:49;13.80;;;7.68;;
75216;SDS011;63800;51.972;5.682;2023-04-06T02:43:15;12.55;;;7.88;;
75216;SDS011;63800;51.972;5.682;2023-04-06T02:45:42;12.63;;;7.28;;
75216;SDS011;63800;51.972;5.682;2023-04-06T02:48:07;9.80;;;7.35;;
75216;SDS011;63800;51.972;5.682;2023-04-06T02:50:32;11.60;;;6.90;;
75216;SDS011;63800;51.972;5.682;2023-04-06T02:52:58;13.98;;;7.13;;
75216;SDS011;63800;51.972;5.682;2023-04-06T02:55:23;13.05;;;7.57;;
75216;SDS011;63800;51.972;5.682;2023-04-06T02:57:49;12.30;;;7.00;;
75216;SDS011;63800;51.972;5.682;2023-04-06T03:00:14;13.25;;;7.43;;
75216;SDS011;63800;51.972;5.682;2023-04-06T03:02:40;12.02;;;7.38;;
75216;SDS011;63800;51.972;5.682;2023-04-06T03:05:06;11.90;;;7.03;;
75216;SDS011;63800;51.972;5.682;2023-04-06T03:07:31;12.55;;;7.70;;
75216;SDS011;63800;51.972;5.682;2023-04-06T03:09:57;14.60;;;7.70;;
75216;SDS011;63800;51.972;5.682;2023-04-06T03:12:22;13.05;;;8.25;;
75216;SDS011;63800;51.972;5.682;2023-04-06T03:14:48;15.73;;;7.68;;
75216;SDS011;63800;51.972;5.682;2023-04-06T03:17:13;12.55;;;7.40;;
75216;SDS011;63800;51.972;5.682;2023-04-06T03:19:39;16.25;;;7.50;;
75216;SDS011;63800;51.972;5.682;2023-04-06T03:22:05;14.20;;;7.68;;
75216;SDS011;63800;51.972;5.682;2023-04-06T03:24:30;12.43;;;7.70;;
75216;SDS011;63800;51.972;5.682;2023-04-06T03:26:56;15.02;;;8.25;;
75216;SDS011;63800;51.972;5.682;2023-04-06T03:29:21;12.07;;;7.35;;
75216;SDS011;63800;51.972;5.682;2023-04-06T03:31:47;13.75;;;8.05;;
75216;SDS011;63800;51.972;5.682;2023-04-06T03:34:12;11.70;;;7.60;;
75216;SDS011;63800;51.972;5.682;2023-04-06T03:36:38;14.05;;;7.40;;
75216;SDS011;63800;51.972;5.682;2023-04-06T03:39:03;12.80;;;7.80;;
75216;SDS011;63800;51.972;5.682;2023-04-06T03:41:29;12.20;;;7.40;;
75216;SDS011;63800;51.972;5.682;2023-04-06T03:43:55;12.85;;;7.72;;
75216;SDS011;63800;51.972;5.682;2023-04-06T03:46:20;12.23;;;7.57;;
75216;SDS011;63800;51.972;5.682;2023-04-06T03:48:48;13.35;;;8.02;;
75216;SDS011;63800;51.972;5.682;2023-04-06T03:51:13;14.05;;;8.30;;
75216;SDS011;63800;51.972;5.682;2023-04-06T03:53:39;13.45;;;7.95;;
75216;SDS011;63800;51.972;5.682;2023-04-06T03:56:04;14.05;;;7.90;;
75216;SDS011;63800;51.972;5.682;2023-04-06T03:58:30;12.82;;;8.15;;
75216;SDS011;63800;51.972;5.682;2023-04-06T04:00:56;13.35;;;7.90;;
75216;SDS011;63800;51.972;5.682;2023-04-06T04:03:21;13.68;;;7.63;;
75216;SDS011;63800;51.972;5.682;2023-04-06T04:05:48;14.35;;;7.70;;
75216;SDS011;63800;51.972;5.682;2023-04-06T04:08:15;13.43;;;8.05;;
75216;SDS011;63800;51.972;5.682;2023-04-06T04:10:40;14.90;;;8.50;;
75216;SDS011;63800;51.972;5.682;2023-04-06T04:13:06;14.82;;;8.32;;
75216;SDS011;63800;51.972;5.682;2023-04-06T04:15:31;17.27;;;8.40;;
75216;SDS011;63800;51.972;5.682;2023-04-06T04:17:56;14.27;;;7.82;;
75216;SDS011;63800;51.972;5.682;2023-04-06T04:20:22;13.43;;;8.18;;
75216;SDS011;63800;51.972;5.682;2023-04-06T04:22:47;13.38;;;8.43;;
75216;SDS011;63800;51.972;5.682;2023-04-06T04:25:13;15.10;;;8.50;;
75216;SDS011;63800;51.972;5.682;2023-04-06T04:27:39;13.82;;;8.23;;
75216;SDS011;63800;51.972;5.682;2023-04-06T04:30:05;13.32;;;8.55;;
75216;SDS011;63800;51.972;5.682;2023-04-06T04:32:31;13.50;;;7.90;;
75216;SDS011;63800;51.972;5.682;2023-04-06T04:34:56;14.52;;;8.00;;
75216;SDS011;63800;51.972;5.682;2023-04-06T04:37:22;15.45;;;8.27;;
75216;SDS011;63800;51.972;5.682;2023-04-06T04:39:48;17.40;;;9.25;;
75216;SDS011;63800;51.972;5.682;2023-04-06T04:42:13;15.90;;;9.13;;
75216;SDS011;63800;51.972;5.682;2023-04-06T04:44:39;14.43;;;8.18;;
75216;SDS011;63800;51.972;5.682;2023-04-06T04:47:04;16.75;;;9.23;;
75216;SDS011;63800;51.972;5.682;2023-04-06T04:49:30;16.55;;;8.57;;
75216;SDS011;63800;51.972;5.682;2023-04-06T04:51:56;15.30;;;8.82;;
75216;SDS011;63800;51.972;5.682;2023-04-06T04:54:21;15.10;;;8.80;;
75216;SDS011;63800;51.972;5.682;2023-04-06T04:56:47;13.85;;;8.50;;
75216;SDS011;63800;51.972;5.682;2023-04-06T04:59:13;16.67;;;8.85;;
75216;SDS011;63800;51.972;5.682;2023-04-06T05:01:38;17.40;;;8.95;;
75216;SDS011;63800;51.972;5.682;2023-04-06T05:04:04;14.95;;;8.98;;
75216;SDS011;63800;51.972;5.682;2023-04-06T05:06:30;15.65;;;9.13;;
75216;SDS011;63800;51.972;5.682;2023-04-06T05:08:55;14.82;;;9.10;;
75216;SDS011;63800;51.972;5.682;2023-04-06T05:11:21;19.63;;;10.15;;
75216;SDS011;63800;51.972;5.682;2023-04-06T05:13:47;17.45;;;9.73;;
75216;SDS011;63800;51.972;5.682;2023-04-06T05:16:12;16.08;;;9.43;;
75216;SDS011;63800;51.972;5.682;2023-04-06T05:18:38;14.15;;;9.18;;
75216;SDS011;63800;51.972;5.682;2023-04-06T05:21:03;17.45;;;9.85;;
75216;SDS011;63800;51.972;5.682;2023-04-06T05:23:29;16.17;;;9.73;;
75216;SDS011;63800;51.972;5.682;2023-04-06T05:25:55;15.45;;;9.63;;
75216;SDS011;63800;51.972;5.682;2023-04-06T05:28:20;15.73;;;9.27;;
75216;SDS011;63800;51.972;5.682;2023-04-06T05:30:46;16.55;;;9.50;;
75216;SDS011;63800;51.972;5.682;2023-04-06T05:33:12;17.63;;;9.73;;
75216;SDS011;63800;51.972;5.682;2023-04-06T05:35:37;18.95;;;10.32;;
75216;SDS011;63800;51.972;5.682;2023-04-06T05:38:05;19.13;;;10.93;;
75216;SDS011;63800;51.972;5.682;2023-04-06T05:40:33;17.95;;;9.63;;
75216;SDS011;63800;51.972;5.682;2023-04-06T05:42:58;18.33;;;10.43;;
75216;SDS011;63800;51.972;5.682;2023-04-06T05:45:23;18.17;;;10.05;;
75216;SDS011;63800;51.972;5.682;2023-04-06T05:47:49;18.77;;;10.75;;
75216;SDS011;63800;51.972;5.682;2023-04-06T05:50:14;19.52;;;11.23;;
75216;SDS011;63800;51.972;5.682;2023-04-06T05:52:40;19.67;;;11.48;;
75216;SDS011;63800;51.972;5.682;2023-04-06T05:55:08;21.77;;;10.75;;
75216;SDS011;63800;51.972;5.682;2023-04-06T05:57:34;18.45;;;10.77;;
75216;SDS011;63800;51.972;5.682;2023-04-06T06:00:00;20.08;;;10.52;;
75216;SDS011;63800;51.972;5.682;2023-04-06T06:02:25;20.67;;;10.75;;
75216;SDS011;63800;51.972;5.682;2023-04-06T06:04:51;18.40;;;11.18;;
75216;SDS011;63800;51.972;5.682;2023-04-06T06:07:16;19.70;;;10.73;;
75216;SDS011;63800;51.972;5.682;2023-04-06T06:09:42;20.00;;;11.85;;
75216;SDS011;63800;51.972;5.682;2023-04-06T06:12:08;23.63;;;11.27;;
75216;SDS011;63800;51.972;5.682;2023-04-06T06:14:33;18.23;;;10.82;;
75216;SDS011;63800;51.972;5.682;2023-04-06T06:16:59;21.98;;;11.35;;
75216;SDS011;63800;51.972;5.682;2023-04-06T06:19:25;18.88;;;10.73;;
75216;SDS011;63800;51.972;5.682;2023-04-06T06:21:50;19.75;;;11.73;;
75216;SDS011;63800;51.972;5.682;2023-04-06T06:24:16;20.30;;;11.85;;
75216;SDS011;63800;51.972;5.682;2023-04-06T06:26:41;18.98;;;11.68;;
75216;SDS011;63800;51.972;5.682;2023-04-06T06:29:08;21.08;;;11.50;;
75216;SDS011;63800;51.972;5.682;2023-04-06T06:31:33;23.52;;;12.00;;
75216;SDS011;63800;51.972;5.682;2023-04-06T06:34:00;22.10;;;11.20;;
75216;SDS011;63800;51.972;5.682;2023-04-06T06:36:26;19.20;;;11.13;;
75216;SDS011;63800;51.972;5.682;2023-04-06T06:38:52;21.63;;;11.48;;
75216;SDS011;63800;51.972;5.682;2023-04-06T06:41:17;22.05;;;11.98;;
75216;SDS011;63800;51.972;5.682;2023-04-06T06:43:43;22.75;;;11.68;;
75216;SDS011;63800;51.972;5.682;2023-04-06T06:46:09;22.55;;;12.20;;
75216;SDS011;63800;51.972;5.682;2023-04-06T06:48:35;24.85;;;13.60;;
75216;SDS011;63800;51.972;5.682;2023-04-06T06:51:00;22.05;;;11.75;;
75216;SDS011;63800;51.972;5.682;2023-04-06T06:53:26;20.83;;;11.65;;
75216;SDS011;63800;51.972;5.682;2023-04-06T06:55:51;25.60;;;13.60;;
75216;SDS011;63800;51.972;5.682;2023-04-06T06:58:17;20.27;;;11.93;;
75216;SDS011;63800;51.972;5.682;2023-04-06T07:00:44;24.17;;;12.18;;
75216;SDS011;63800;51.972;5.682;2023-04-06T07:03:09;24.77;;;13.35;;
75216;SDS011;63800;51.972;5.682;2023-04-06T07:05:35;22.38;;;13.50;;
75216;SDS011;63800;51.972;5.682;2023-04-06T07:08:00;23.42;;;12.68;;
75216;SDS011;63800;51.972;5.682;2023-04-06T07:10:26;25.08;;;13.35;;
75216;SDS011;63800;51.972;5.682;2023-04-06T07:12:51;24.40;;;13.00;;
75216;SDS011;63800;51.972;5.682;2023-04-06T07:15:17;27.20;;;13.65;;
75216;SDS011;63800;51.972;5.682;2023-04-06T07:17:42;22.88;;;13.45;;
75216;SDS011;63800;51.972;5.682;2023-04-06T07:20:11;20.23;;;11.85;;
75216;SDS011;63800;51.972;5.682;2023-04-06T07:22:38;28.02;;;13.30;;
75216;SDS011;63800;51.972;5.682;2023-04-06T07:25:04;22.80;;;12.90;;
75216;SDS011;63800;51.972;5.682;2023-04-06T07:27:30;25.75;;;12.90;;
75216;SDS011;63800;51.972;5.682;2023-04-06T07:29:56;25.27;;;13.35;;
75216;SDS011;63800;51.972;5.682;2023-04-06T07:32:21;24.60;;;12.70;;
75216;SDS011;63800;51.972;5.682;2023-04-06T07:34:47;26.40;;;13.07;;
75216;SDS011;63800;51.972;5.682;2023-04-06T07:37:12;25.33;;;14.27;;
75216;SDS011;63800;51.972;5.682;2023-04-06T07:39:38;23.77;;;12.43;;
75216;SDS011;63800;51.972;5.682;2023-04-06T07:42:04;25.95;;;13.55;;
75216;SDS011;63800;51.972;5.682;2023-04-06T07:44:29;22.98;;;12.88;;
75216;SDS011;63800;51.972;5.682;2023-04-06T07:46:55;24.48;;;12.25;;
75216;SDS011;63800;51.972;5.682;2023-04-06T07:49:21;21.70;;;12.48;;
75216;SDS011;63800;51.972;5.682;2023-04-06T07:51:47;26.30;;;13.27;;
75216;SDS011;63800;51.972;5.682;2023-04-06T07:54:13;25.10;;;12.85;;
75216;SDS011;63800;51.972;5.682;2023-04-06T07:56:39;20.88;;;12.73;;
75216;SDS011;63800;51.972;5.682;2023-04-06T07:59:04;25.20;;;13.63;;
75216;SDS011;63800;51.972;5.682;2023-04-06T08:01:30;24.30;;;12.18;;
75216;SDS011;63800;51.972;5.682;2023-04-06T08:03:56;25.58;;;13.27;;
75216;SDS011;63800;51.972;5.682;2023-04-06T08:06:22;25.88;;;14.18;;
75216;SDS011;63800;51.972;5.682;2023-04-06T08:08:48;25.10;;;13.50;;
75216;SDS011;63800;51.972;5.682;2023-04-06T08:11:13;25.73;;;13.95;;
75216;SDS011;63800;51.972;5.682;2023-04-06T08:13:39;25.33;;;14.20;;
75216;SDS011;63800;51.972;5.682;2023-04-06T08:16:04;24.88;;;13.77;;
75216;SDS011;63800;51.972;5.682;2023-04-06T08:18:30;26.15;;;14.80;;
75216;SDS011;63800;51.972;5.682;2023-04-06T08:20:56;28.35;;;14.05;;
75216;SDS011;63800;51.972;5.682;2023-04-06T08:23:22;22.33;;;13.63;;
75216;SDS011;63800;51.972;5.682;2023-04-06T08:25:47;22.60;;;12.98;;
75216;SDS011;63800;51.972;5.682;2023-04-06T08:28:13;26.80;;;13.82;;
75216;SDS011;63800;51.972;5.682;2023-04-06T08:30:44;26.77;;;14.65;;
75216;SDS011;63800;51.972;5.682;2023-04-06T08:33:09;27.75;;;13.85;;
75216;SDS011;63800;51.972;5.682;2023-04-06T08:35:35;25.33;;;13.38;;
75216;SDS011;63800;51.972;5.682;2023-04-06T08:38:01;26.52;;;14.43;;
75216;SDS011;63800;51.972;5.682;2023-04-06T08:40:27;28.15;;;14.30;;
75216;SDS011;63800;51.972;5.682;2023-04-06T08:42:54;28.05;;;14.70;;
75216;SDS011;63800;51.972;5.682;2023-04-06T08:45:21;24.50;;;14.02;;
75216;SDS011;63800;51.972;5.682;2023-04-06T08:47:50;29.77;;;14.63;;
75216;SDS011;63800;51.972;5.682;2023-04-06T08:50:17;26.65;;;13.52;;
75216;SDS011;63800;51.972;5.682;2023-04-06T08:52:43;22.98;;;13.52;;
75216;SDS011;63800;51.972;5.682;2023-04-06T08:55:12;24.60;;;14.63;;
75216;SDS011;63800;51.972;5.682;2023-04-06T08:57:37;24.88;;;14.57;;
75216;SDS011;63800;51.972;5.682;2023-04-06T09:00:04;29.52;;;15.32;;
75216;SDS011;63800;51.972;5.682;2023-04-06T09:02:31;28.63;;;15.23;;
75216;SDS011;63800;51.972;5.682;2023-04-06T09:04:57;25.95;;;13.80;;
75216;SDS011;63800;51.972;5.682;2023-04-06T09:07:24;26.52;;;14.45;;
75216;SDS011;63800;51.972;5.682;2023-04-06T09:09:49;25.75;;;13.90;;
75216;SDS011;63800;51.972;5.682;2023-04-06T09:12:29;28.83;;;16.20;;
75216;SDS011;63800;51.972;5.682;2023-04-06T09:14:56;27.50;;;14.57;;
75216;SDS011;63800;51.972;5.682;2023-04-06T09:17:23;26.95;;;14.45;;
75216;SDS011;63800;51.972;5.682;2023-04-06T09:19:49;25.95;;;14.95;;
75216;SDS011;63800;51.972;5.682;2023-04-06T09:22:15;26.25;;;15.65;;
75216;SDS011;63800;51.972;5.682;2023-04-06T09:24:45;26.77;;;13.73;;
75216;SDS011;63800;51.972;5.682;2023-04-06T09:27:12;26.35;;;15.15;;
75216;SDS011;63800;51.972;5.682;2023-04-06T09:29:39;26.67;;;15.18;;
75216;SDS011;63800;51.972;5.682;2023-04-06T09:32:06;30.48;;;16.27;;
75216;SDS011;63800;51.972;5.682;2023-04-06T09:34:41;28.73;;;17.02;;
75216;SDS011;63800;51.972;5.682;2023-04-06T09:39:39;30.35;;;16.42;;
75216;SDS011;63800;51.972;5.682;2023-04-06T09:42:04;27.48;;;15.95;;
75216;SDS011;63800;51.972;5.682;2023-04-06T09:44:30;29.00;;;16.48;;
75216;SDS011;63800;51.972;5.682;2023-04-06T09:46:56;28.27;;;15.35;;
75216;SDS011;63800;51.972;5.682;2023-04-06T09:49:21;29.95;;;16.38;;
75216;SDS011;63800;51.972;5.682;2023-04-06T09:51:54;33.75;;;16.30;;
75216;SDS011;63800;51.972;5.682;2023-04-06T09:54:23;29.65;;;15.90;;
75216;SDS011;63800;51.972;5.682;2023-04-06T09:56:58;30.13;;;16.73;;
75216;SDS011;63800;51.972;5.682;2023-04-06T10:01:55;26.92;;;14.43;;
75216;SDS011;63800;51.972;5.682;2023-04-06T10:06:52;31.98;;;16.13;;
75216;SDS011;63800;51.972;5.682;2023-04-06T10:09:17;29.85;;;15.30;;
75216;SDS011;63800;51.972;5.682;2023-04-06T10:11:43;31.48;;;16.27;;
75216;SDS011;63800;51.972;5.682;2023-04-06T10:14:10;30.13;;;14.95;;
75216;SDS011;63800;51.972;5.682;2023-04-06T10:16:36;27.50;;;14.88;;
75216;SDS011;63800;51.972;5.682;2023-04-06T10:19:04;30.60;;;15.73;;
75216;SDS011;63800;51.972;5.682;2023-04-06T10:21:35;28.02;;;15.20;;
75216;SDS011;63800;51.972;5.682;2023-04-06T10:24:06;28.48;;;15.65;;
75216;SDS011;63800;51.972;5.682;2023-04-06T10:29:02;28.13;;;14.45;;
75216;SDS011;63800;51.972;5.682;2023-04-06T10:31:28;26.13;;;15.20;;
75216;SDS011;63800;51.972;5.682;2023-04-06T10:33:55;26.42;;;14.38;;
75216;SDS011;63800;51.972;5.682;2023-04-06T10:36:25;26.70;;;14.98;;
75216;SDS011;63800;51.972;5.682;2023-04-06T10:41:32;25.65;;;13.15;;
75216;SDS011;63800;51.972;5.682;2023-04-06T10:43:59;24.67;;;14.00;;
75216;SDS011;63800;51.972;5.682;2023-04-06T10:46:26;25.50;;;13.85;;
75216;SDS011;63800;51.972;5.682;2023-04-06T10:48:55;23.70;;;13.60;;
75216;SDS011;63800;51.972;5.682;2023-04-06T10:51:26;24.00;;;13.48;;
75216;SDS011;63800;51.972;5.682;2023-04-06T10:53:52;25.33;;;14.90;;
75216;SDS011;63800;51.972;5.682;2023-04-06T10:56:21;23.30;;;13.95;;
75216;SDS011;63800;51.972;5.682;2023-04-06T10:58:52;20.23;;;11.75;;
75216;SDS011;63800;51.972;5.682;2023-04-06T11:01:21;21.95;;;12.32;;
75216;SDS011;63800;51.972;5.682;2023-04-06T11:03:48;25.98;;;12.65;;
75216;SDS011;63800;51.972;5.682;2023-04-06T11:06:24;19.08;;;10.75;;
75216;SDS011;63800;51.972;5.682;2023-04-06T11:08:51;24.13;;;12.40;;
75216;SDS011;63800;51.972;5.682;2023-04-06T11:11:19;20.95;;;11.50;;
75216;SDS011;63800;51.972;5.682;2023-04-06T11:13:49;20.05;;;10.60;;
75216;SDS011;63800;51.972;5.682;2023-04-06T11:16:20;19.17;;;10.57;;
75216;SDS011;63800;51.972;5.682;2023-04-06T11:18:54;17.95;;;10.32;;
75216;SDS011;63800;51.972;5.682;2023-04-06T11:21:33;16.98;;;10.75;;
75216;SDS011;63800;51.972;5.682;2023-04-06T11:26:56;18.15;;;9.68;;
75216;SDS011;63800;51.972;5.682;2023-04-06T11:29:27;15.93;;;9.55;;
75216;SDS011;63800;51.972;5.682;2023-04-06T11:31:59;15.73;;;9.13;;
75216;SDS011;63800;51.972;5.682;2023-04-06T11:34:27;16.83;;;9.57;;
75216;SDS011;63800;51.972;5.682;2023-04-06T11:36:55;16.80;;;7.97;;
75216;SDS011;63800;51.972;5.682;2023-04-06T11:39:22;16.50;;;8.43;;
75216;SDS011;63800;51.972;5.682;2023-04-06T11:41:50;16.63;;;9.32;;
75216;SDS011;63800;51.972;5.682;2023-04-06T11:44:32;15.10;;;8.85;;
75216;SDS011;63800;51.972;5.682;2023-04-06T11:49:30;15.45;;;8.32;;
75216;SDS011;63800;51.972;5.682;2023-04-06T11:51:57;17.52;;;8.45;;
75216;SDS011;63800;51.972;5.682;2023-04-06T11:54:33;19.15;;;9.40;;
75216;SDS011;63800;51.972;5.682;2023-04-06T11:57:00;15.88;;;9.18;;
75216;SDS011;63800;51.972;5.682;2023-04-06T11:59:26;19.23;;;9.38;;
75216;SDS011;63800;51.972;5.682;2023-04-06T12:01:52;18.33;;;10.13;;
75216;SDS011;63800;51.972;5.682;2023-04-06T12:04:18;17.35;;;8.90;;
75216;SDS011;63800;51.972;5.682;2023-04-06T12:06:44;14.82;;;8.18;;
75216;SDS011;63800;51.972;5.682;2023-04-06T12:09:10;12.32;;;7.25;;
75216;SDS011;63800;51.972;5.682;2023-04-06T12:11:35;12.02;;;6.72;;
75216;SDS011;63800;51.972;5.682;2023-04-06T12:14:01;13.20;;;6.45;;
75216;SDS011;63800;51.972;5.682;2023-04-06T12:16:29;11.75;;;7.18;;
75216;SDS011;63800;51.972;5.682;2023-04-06T12:18:58;12.05;;;6.60;;
75216;SDS011;63800;51.972;5.682;2023-04-06T12:21:24;10.45;;;5.65;;
75216;SDS011;63800;51.972;5.682;2023-04-06T12:23:51;12.65;;;6.80;;
75216;SDS011;63800;51.972;5.682;2023-04-06T12:26:17;10.73;;;5.88;;
75216;SDS011;63800;51.972;5.682;2023-04-06T12:28:42;11.15;;;6.10;;
75216;SDS011;63800;51.972;5.682;2023-04-06T12:31:14;10.45;;;6.32;;
75216;SDS011;63800;51.972;5.682;2023-04-06T12:33:40;10.70;;;6.32;;
75216;SDS011;63800;51.972;5.682;2023-04-06T12:36:11;10.30;;;6.40;;
75216;SDS011;63800;51.972;5.682;2023-04-06T12:38:38;11.38;;;6.22;;
75216;SDS011;63800;51.972;5.682;2023-04-06T12:41:05;9.45;;;5.93;;
75216;SDS011;63800;51.972;5.682;2023-04-06T12:43:30;11.63;;;6.35;;
75216;SDS011;63800;51.972;5.682;2023-04-06T12:45:56;9.95;;;5.88;;
75216;SDS011;63800;51.972;5.682;2023-04-06T12:48:21;13.55;;;7.72;;
75216;SDS011;63800;51.972;5.682;2023-04-06T12:50:53;10.60;;;6.32;;
75216;SDS011;63800;51.972;5.682;2023-04-06T12:53:20;12.82;;;6.97;;
75216;SDS011;63800;51.972;5.682;2023-04-06T12:55:46;10.68;;;6.45;;
75216;SDS011;63800;51.972;5.682;2023-04-06T12:58:11;12.90;;;6.78;;
75216;SDS011;63800;51.972;5.682;2023-04-06T13:00:36;12.88;;;6.38;;
75216;SDS011;63800;51.972;5.682;2023-04-06T13:03:02;10.98;;;6.40;;
75216;SDS011;63800;51.972;5.682;2023-04-06T13:05:27;10.95;;;7.28;;
75216;SDS011;63800;51.972;5.682;2023-04-06T13:07:53;9.32;;;6.50;;
75216;SDS011;63800;51.972;5.682;2023-04-06T13:10:18;10.77;;;6.30;;
75216;SDS011;63800;51.972;5.682;2023-04-06T13:12:45;11.27;;;6.43;;
75216;SDS011;63800;51.972;5.682;2023-04-06T13:15:10;12.40;;;6.45;;
75216;SDS011;63800;51.972;5.682;2023-04-06T13:17:36;11.60;;;6.82;;
75216;SDS011;63800;51.972;5.682;2023-04-06T13:20:02;9.82;;;6.35;;
75216;SDS011;63800;51.972;5.682;2023-04-06T13:22:28;11.75;;;6.60;;
75216;SDS011;63800;51.972;5.682;2023-04-06T13:24:54;10.57;;;6.22;;
75216;SDS011;63800;51.972;5.682;2023-04-06T13:27:19;11.68;;;6.40;;
75216;SDS011;63800;51.972;5.682;2023-04-06T13:29:45;12.23;;;7.10;;
75216;SDS011;63800;51.972;5.682;2023-04-06T13:32:10;12.68;;;7.18;;
75216;SDS011;63800;51.972;5.682;2023-04-06T13:34:36;11.40;;;6.82;;
75216;SDS011;63800;51.972;5.682;2023-04-06T13:37:01;10.45;;;6.22;;
75216;SDS011;63800;51.972;5.682;2023-04-06T13:39:27;13.00;;;7.07;;
75216;SDS011;63800;51.972;5.682;2023-04-06T13:41:55;13.38;;;6.90;;
75216;SDS011;63800;51.972;5.682;2023-04-06T13:44:21;12.55;;;6.50;;
75216;SDS011;63800;51.972;5.682;2023-04-06T13:46:47;12.43;;;7.45;;
75216;SDS011;63800;51.972;5.682;2023-04-06T13:49:13;12.45;;;7.57;;
75216;SDS011;63800;51.972;5.682;2023-04-06T13:51:38;13.10;;;6.95;;
75216;SDS011;63800;51.972;5.682;2023-04-06T13:54:04;13.73;;;7.05;;
75216;SDS011;63800;51.972;5.682;2023-04-06T13:56:30;11.07;;;6.85;;
75216;SDS011;63800;51.972;5.682;2023-04-06T13:58:55;11.98;;;7.15;;
75216;SDS011;63800;51.972;5.682;2023-04-06T14:01:21;11.95;;;6.97;;
75216;SDS011;63800;51.972;5.682;2023-04-06T14:03:48;13.43;;;7.28;;
75216;SDS011;63800;51.972;5.682;2023-04-06T14:06:14;13.00;;;7.28;;
75216;SDS011;63800;51.972;5.682;2023-04-06T14:08:40;15.40;;;8.52;;
75216;SDS011;63800;51.972;5.682;2023-04-06T14:11:06;16.42;;;7.85;;
75216;SDS011;63800;51.972;5.682;2023-04-06T14:13:36;13.68;;;7.90;;
75216;SDS011;63800;51.972;5.682;2023-04-06T14:16:02;14.00;;;8.00;;
75216;SDS011;63800;51.972;5.682;2023-04-06T14:18:28;15.30;;;7.97;;
75216;SDS011;63800;51.972;5.682;2023-04-06T14:20:56;16.77;;;9.23;;
75216;SDS011;63800;51.972;5.682;2023-04-06T14:23:22;16.40;;;8.45;;
75216;SDS011;63800;51.972;5.682;2023-04-06T14:25:48;15.05;;;8.18;;
75216;SDS011;63800;51.972;5.682;2023-04-06T14:28:13;16.67;;;8.43;;
75216;SDS011;63800;51.972;5.682;2023-04-06T14:30:39;17.55;;;9.20;;
75216;SDS011;63800;51.972;5.682;2023-04-06T14:33:05;14.10;;;8.00;;
75216;SDS011;63800;51.972;5.682;2023-04-06T14:35:30;15.95;;;8.65;;
75216;SDS011;63800;51.972;5.682;2023-04-06T14:37:57;14.88;;;8.50;;
75216;SDS011;63800;51.972;5.682;2023-04-06T14:40:23;16.92;;;8.20;;